Terminal Aerodrome Forecast
Issued by NWS

Home | Current Version | Previous Version | Text Only | Print | Product List | Glossary On
Versions: 1 2 3 4 5 6 7 8 9 10 11 12 13 14 15 16 17
000
FTUS45 KABQ 280220 AAB
TAFAEG
TAF AMD
KAEG 280220Z 2802/2824 24015G25KT P6SM BKN100
     FM281600 23018G28KT P6SM VCSH OVC070
     FM281800 26029G41KT P6SM OVC060
      TEMPO 2820/2824 5SM -SN OVC025=

USA.gov is the U.S. government's official web portal to all federal, state and local government web resources and services.